Time;durP1;ratioP1;P1;durP2;ratioP2;P2;SDS_P1;SDS_P2;PMS_P1;PMS_P2;Temp;Humidity;BMP_temperature;BMP_pressure;BME280_temperature;BME280_humidity;BME280_pressure;Samples;Min_cycle;Max_cycle;Signal;HPM_P1;HPM_P2
2023/06/08 00:00:20;;;;;;;10.60;4.18;;;;;;;15.92;94.61;100546.72;4915932;29;20039;-68
2023/06/08 00:02:46;;;;;;;7.13;4.40;;;;;;;15.83;95.08;100555.25;4915576;29;20059;-70
2023/06/08 00:05:13;;;;;;;8.60;4.35;;;;;;;15.81;94.99;100559.53;4915227;29;20032;-68
2023/06/08 00:07:40;;;;;;;6.38;4.32;;;;;;;15.30;94.63;100462.41;4915467;29;20020;-68
2023/06/08 00:10:10;;;;;;;6.05;3.80;;;;;;;15.93;93.85;100550.22;4915946;29;20088;-68
2023/06/08 00:12:36;;;;;;;6.88;3.78;;;;;;;15.49;93.92;100492.19;4915485;29;20039;-69
2023/06/08 00:15:03;;;;;;;7.25;3.92;;;;;;;15.63;94.51;100521.03;4915998;29;20068;-68
2023/06/08 00:17:31;;;;;;;5.32;3.80;;;;;;;15.52;94.95;100514.78;4915517;29;20050;-68
2023/06/08 00:19:56;;;;;;;7.82;4.43;;;;;;;15.48;95.21;100505.19;4915727;29;20455;-68
2023/06/08 00:22:22;;;;;;;6.45;3.63;;;;;;;15.33;95.94;100509.25;4915253;29;20089;-67
2023/06/08 00:24:48;;;;;;;8.75;4.10;;;;;;;15.36;96.37;100524.94;4915581;29;20091;-67
2023/06/08 00:27:13;;;;;;;8.20;4.07;;;;;;;15.35;96.37;100527.47;4915082;29;20030;-68
2023/06/08 00:29:39;;;;;;;8.80;4.28;;;;;;;15.37;96.37;100518.00;4898699;29;20475;-68
2023/06/08 00:32:05;;;;;;;8.43;3.80;;;;;;;15.30;96.70;100517.03;4915200;29;20399;-69
2023/06/08 00:34:30;;;;;;;8.85;4.00;;;;;;;15.46;96.34;100512.06;4915316;29;20032;-68
2023/06/08 00:36:55;;;;;;;7.53;4.18;;;;;;;15.61;95.33;100506.25;4914846;29;20031;-68
2023/06/08 00:39:21;;;;;;;5.10;3.47;;;;;;;15.33;94.89;100452.03;4915428;29;20036;-68
2023/06/08 00:41:46;;;;;;;6.55;4.03;;;;;;;15.76;94.75;100500.44;4914954;29;20028;-68
2023/06/08 00:44:12;;;;;;;5.18;3.47;;;;;;;15.74;95.54;100505.63;4914627;29;20032;-69
2023/06/08 00:46:38;;;;;;;6.15;4.00;;;;;;;15.69;97.40;100505.53;4914943;29;20044;-68
2023/06/08 00:49:07;;;;;;;7.30;4.47;;;;;;;15.20;97.65;100413.66;4915450;29;20036;-68
2023/06/08 00:51:40;;;;;;;4.72;3.33;;;;;;;15.47;98.20;100498.22;4914681;29;20087;-68
2023/06/08 00:54:06;;;;;;;8.88;4.10;;;;;;;15.43;98.86;100491.22;4922228;29;20036;-68
2023/06/08 00:56:35;;;;;;;8.15;4.13;;;;;;;15.46;98.27;100491.25;4914513;29;20028;-68
2023/06/08 00:59:02;;;;;;;7.05;4.25;;;;;;;15.44;97.41;100479.94;4915162;29;20051;-68
2023/06/08 01:01:29;;;;;;;5.93;3.53;;;;;;;15.27;97.61;100488.34;4914747;29;20028;-68
2023/06/08 01:04:07;;;;;;;8.13;3.90;;;;;;;15.20;98.24;100487.34;4914333;29;20028;-67
2023/06/08 01:06:53;;;;;;;7.05;3.95;;;;;;;15.16;97.77;100484.66;4914611;29;20111;-68
2023/06/08 01:09:27;;;;;;;7.78;4.07;;;;;;;15.27;97.42;100493.53;4914277;29;20036;-67
2023/06/08 01:12:11;;;;;;;8.90;3.95;;;;;;;15.27;97.21;100492.69;4914558;29;20402;-68
2023/06/08 01:14:56;;;;;;;12.18;4.35;;;;;;;15.14;97.38;100484.66;4902682;29;20113;-68
2023/06/08 01:17:29;;;;;;;11.13;4.82;;;;;;;15.06;97.91;100493.16;4914423;29;20028;-68
2023/06/08 01:20:10;;;;;;;9.75;3.95;;;;;;;14.99;97.93;100486.94;4914519;29;20419;-68
2023/06/08 01:23:03;;;;;;;9.50;4.20;;;;;;;14.56;97.38;100403.81;4914532;29;20032;-67
2023/06/08 01:25:31;;;;;;;7.72;4.15;;;;;;;14.70;97.39;100445.66;4914174;29;20036;-68
2023/06/08 01:28:12;;;;;;;9.73;4.40;;;;;;;15.00;97.29;100489.59;4914492;29;20091;-69
2023/06/08 01:30:42;;;;;;;10.45;4.00;;;;;;;14.96;97.02;100500.75;4914211;29;20107;-68
2023/06/08 01:33:14;;;;;;;10.27;4.20;;;;;;;14.95;97.01;100496.41;4914237;29;20040;-66
2023/06/08 01:35:41;;;;;;;11.13;4.53;;;;;;;14.86;97.26;100497.09;4913777;29;20491;-69
2023/06/08 01:38:26;;;;;;;7.00;4.35;;;;;;;14.66;97.32;100464.66;4914060;29;20083;-69
2023/06/08 01:40:56;;;;;;;8.35;4.20;;;;;;;14.74;97.97;100493.38;4914607;29;20116;-68
2023/06/08 01:43:24;;;;;;;9.35;3.80;;;;;;;14.55;97.92;100479.97;4914361;29;20036;-67
2023/06/08 01:45:55;;;;;;;9.45;4.20;;;;;;;14.57;97.88;100480.91;4914289;29;20075;-69
2023/06/08 01:48:23;;;;;;;6.90;4.00;;;;;;;14.64;97.57;100495.78;4913983;29;20039;-68
2023/06/08 01:50:51;;;;;;;7.63;4.18;;;;;;;14.54;97.94;100486.00;4880826;29;20521;-68
2023/06/08 01:53:17;;;;;;;7.45;4.10;;;;;;;14.52;98.03;100490.31;4914014;29;20035;-68
2023/06/08 01:55:42;;;;;;;11.38;4.35;;;;;;;14.52;98.20;100491.19;4914221;29;20036;-68
2023/06/08 01:58:08;;;;;;;6.45;4.43;;;;;;;14.38;98.04;100472.72;4913485;29;20395;-68
2023/06/08 02:00:33;;;;;;;7.70;4.60;;;;;;;14.38;98.33;100479.63;4914400;29;20035;-69
2023/06/08 02:02:59;;;;;;;9.45;4.28;;;;;;;14.42;98.42;100489.25;4913451;29;20075;-68
2023/06/08 02:05:25;;;;;;;9.75;4.90;;;;;;;14.11;98.42;100436.63;4914092;29;20104;-68
2023/06/08 02:07:50;;;;;;;6.07;4.30;;;;;;;14.37;98.63;100483.94;4913747;29;20032;-67
2023/06/08 02:10:17;;;;;;;14.52;4.80;;;;;;;14.55;98.44;100506.84;4914212;29;20036;-69
2023/06/08 02:12:42;;;;;;;7.55;4.28;;;;;;;14.56;97.61;100490.41;4913702;29;20067;-67
2023/06/08 02:15:08;;;;;;;7.93;4.72;;;;;;;14.66;97.06;100493.25;4913646;29;20111;-68
2023/06/08 02:17:35;;;;;;;7.35;4.50;;;;;;;14.33;96.75;100438.00;4879301;29;20056;-68
2023/06/08 02:20:06;;;;;;;7.03;4.60;;;;;;;14.66;96.45;100488.91;4913859;29;20039;-68
2023/06/08 02:22:32;;;;;;;8.20;4.78;;;;;;;14.71;96.35;100494.19;4912912;29;20601;-67
2023/06/08 02:24:57;;;;;;;12.68;4.43;;;;;;;14.28;96.82;100455.19;4912390;29;20036;-67
2023/06/08 02:27:22;;;;;;;9.02;4.10;;;;;;;14.59;97.05;100505.16;4913423;29;20371;-68
2023/06/08 02:29:48;;;;;;;8.93;4.45;;;;;;;14.56;96.83;100507.72;4913902;29;20040;-68
2023/06/08 02:32:13;;;;;;;8.55;4.47;;;;;;;14.30;98.21;100505.41;4913438;29;20020;-68
2023/06/08 02:34:39;;;;;;;8.38;4.20;;;;;;;14.27;97.96;100494.97;4913367;29;20031;-68
2023/06/08 02:37:04;;;;;;;8.57;4.55;;;;;;;14.35;97.56;100511.59;4913230;29;20087;-68
2023/06/08 02:39:30;;;;;;;7.88;3.97;;;;;;;14.23;98.08;100512.22;4913869;29;20021;-68
2023/06/08 02:41:56;;;;;;;8.38;3.70;;;;;;;14.20;98.34;100516.44;4912918;29;20475;-68
2023/06/08 02:44:21;;;;;;;10.88;3.88;;;;;;;13.84;99.11;100494.84;4913685;29;20419;-68
2023/06/08 02:46:47;;;;;;;9.32;3.88;;;;;;;13.48;100.00;100528.53;4913171;29;20028;-67
2023/06/08 02:49:13;;;;;;;10.70;4.07;;;;;;;13.07;100.00;100524.88;4913767;29;20056;-67
2023/06/08 02:51:38;;;;;;;8.52;4.13;;;;;;;12.91;100.00;100527.84;4913015;29;20063;-67
2023/06/08 02:54:04;;;;;;;5.90;3.92;;;;;;;12.78;100.00;100526.63;4913617;29;20031;-68
2023/06/08 02:56:29;;;;;;;6.72;4.25;;;;;;;12.50;100.00;100514.56;4913037;29;20036;-68
2023/06/08 02:58:56;;;;;;;7.68;4.28;;;;;;;12.58;100.00;100497.56;4913180;29;20064;-67
2023/06/08 03:01:23;;;;;;;9.23;4.80;;;;;;;12.79;100.00;100524.06;4913334;29;20391;-68
2023/06/08 03:03:51;;;;;;;6.85;4.05;;;;;;;12.88;100.00;100528.63;4911670;29;20036;-66
2023/06/08 03:06:17;;;;;;;8.35;4.10;;;;;;;12.64;100.00;100531.41;4914160;29;20111;-68
2023/06/08 03:08:53;;;;;;;7.15;4.30;;;;;;;12.86;100.00;100532.91;4916934;29;20115;-67
2023/06/08 03:11:22;;;;;;;7.93;4.70;;;;;;;12.87;100.00;100532.09;4924040;29;20051;-67
2023/06/08 03:13:48;;;;;;;12.85;4.60;;;;;;;13.03;100.00;100529.91;4916857;29;20020;-68
2023/06/08 03:16:14;;;;;;;8.57;4.57;;;;;;;13.08;100.00;100533.50;4916934;29;20491;-67
2023/06/08 03:18:41;;;;;;;12.15;4.70;;;;;;;12.96;100.00;100536.66;4916115;29;20028;-68
2023/06/08 03:21:12;;;;;;;10.60;4.35;;;;;;;12.75;100.00;100517.06;4916458;29;20091;-67
2023/06/08 03:23:38;;;;;;;5.85;4.47;;;;;;;12.76;100.00;100525.69;4916461;29;20032;-68
2023/06/08 03:26:04;;;;;;;8.20;4.43;;;;;;;12.80;100.00;100535.31;4916474;29;20560;-67
2023/06/08 03:28:30;;;;;;;6.20;3.92;;;;;;;13.02;100.00;100539.41;4914497;29;20036;-68
2023/06/08 03:30:55;;;;;;;8.88;4.53;;;;;;;13.19;100.00;100528.63;4916503;29;20471;-67
2023/06/08 03:33:21;;;;;;;7.63;4.00;;;;;;;13.34;100.00;100530.75;4911454;29;20488;-68
2023/06/08 03:35:47;;;;;;;8.80;4.75;;;;;;;13.38;100.00;100530.91;4898111;29;20832;-67
2023/06/08 03:38:13;;;;;;;8.93;4.63;;;;;;;13.30;100.00;100522.00;4915565;29;20043;-67
2023/06/08 03:40:38;;;;;;;10.40;5.43;;;;;;;12.83;100.00;100469.75;4915945;29;20039;-67
2023/06/08 03:43:04;;;;;;;13.15;4.43;;;;;;;13.18;100.00;100532.03;4916187;29;20085;-67
2023/06/08 03:45:30;;;;;;;9.55;4.63;;;;;;;12.71;100.00;100458.22;4916306;29;20143;-68
2023/06/08 03:47:55;;;;;;;13.45;4.40;;;;;;;13.13;100.00;100533.63;4914671;29;20490;-67
2023/06/08 03:50:21;;;;;;;9.02;4.53;;;;;;;13.30;100.00;100542.75;4916082;29;20036;-69
2023/06/08 03:52:46;;;;;;;8.32;4.43;;;;;;;13.39;100.00;100540.41;4915697;29;20040;-68
2023/06/08 03:55:12;;;;;;;6.53;4.15;;;;;;;13.15;100.00;100526.78;4915946;29;20142;-67
2023/06/08 03:57:39;;;;;;;7.95;3.95;;;;;;;13.02;100.00;100541.09;4916180;29;20058;-68
2023/06/08 04:00:11;;;;;;;9.95;4.70;;;;;;;12.75;100.00;100508.41;4915907;29;20119;-67
2023/06/08 04:02:38;;;;;;;7.43;4.60;;;;;;;13.10;100.00;100530.13;4913013;29;20047;-68
2023/06/08 04:05:06;;;;;;;9.48;4.63;;;;;;;13.06;100.00;100538.66;4907655;29;20411;-68
2023/06/08 04:07:34;;;;;;;12.30;5.60;;;;;;;13.08;100.00;100520.53;4883027;29;20463;-67
2023/06/08 04:10:01;;;;;;;14.77;8.23;;;;;;;13.47;100.00;100537.16;4896218;29;20039;-67
2023/06/08 04:12:26;;;;;;;22.35;10.35;;;;;;;13.57;100.00;100521.88;4910979;29;20395;-67
2023/06/08 04:14:52;;;;;;;9.82;6.47;;;;;;;13.81;100.00;100543.22;4916219;29;20039;-67
2023/06/08 04:17:18;;;;;;;11.23;5.97;;;;;;;13.99;100.00;100540.19;4915609;29;20032;-69
2023/06/08 04:19:43;;;;;;;12.45;4.93;;;;;;;13.69;100.00;100468.53;4914869;29;20020;-69
2023/06/08 04:22:09;;;;;;;10.52;4.85;;;;;;;13.78;100.00;100470.47;4909296;29;20028;-69
2023/06/08 04:24:36;;;;;;;7.30;4.70;;;;;;;14.36;100.00;100543.66;4901522;29;20035;-69
2023/06/08 04:27:02;;;;;;;9.65;4.68;;;;;;;14.46;100.00;100539.53;4918820;29;20056;-68
2023/06/08 04:29:27;;;;;;;12.48;5.03;;;;;;;14.55;100.00;100551.03;4914920;29;20747;-68
2023/06/08 04:31:53;;;;;;;7.72;4.50;;;;;;;13.98;100.00;100429.41;4916019;29;20028;-70
2023/06/08 04:34:18;;;;;;;7.47;4.22;;;;;;;14.83;100.00;100545.56;4916340;29;20354;-69
2023/06/08 04:36:44;;;;;;;9.25;4.78;;;;;;;15.02;100.00;100555.47;4915943;29;20035;-70
2023/06/08 04:39:09;;;;;;;7.45;4.50;;;;;;;15.13;100.00;100549.63;4915853;29;20059;-69
2023/06/08 04:41:35;;;;;;;9.50;4.82;;;;;;;15.11;100.00;100535.72;4915879;29;20100;-69
2023/06/08 04:44:02;;;;;;;8.23;5.07;;;;;;;15.20;100.00;100547.19;4916249;29;20036;-69
2023/06/08 04:46:33;;;;;;;9.07;4.30;;;;;;;15.08;100.00;100525.25;4915826;29;20055;-70
2023/06/08 04:48:59;;;;;;;11.85;4.50;;;;;;;15.19;100.00;100539.34;4915995;29;20028;-69
2023/06/08 04:51:29;;;;;;;7.63;4.47;;;;;;;15.26;100.00;100549.00;4915903;29;20107;-69
2023/06/08 04:53:56;;;;;;;9.23;4.75;;;;;;;15.23;100.00;100546.34;4915907;29;20096;-70
2023/06/08 04:56:23;;;;;;;11.48;5.22;;;;;;;15.20;100.00;100528.06;4915944;29;20490;-67
2023/06/08 04:58:50;;;;;;;8.90;5.20;;;;;;;14.94;100.00;100489.47;4915811;29;20039;-69
2023/06/08 05:01:16;;;;;;;13.65;6.25;;;;;;;15.40;100.00;100549.25;4915830;29;20063;-70
2023/06/08 05:03:43;;;;;;;11.98;7.20;;;;;;;15.49;100.00;100549.44;4915813;29;20036;-69
2023/06/08 05:06:08;;;;;;;11.98;5.90;;;;;;;15.22;100.00;100489.13;4915862;29;20044;-70
2023/06/08 05:08:34;;;;;;;10.40;5.35;;;;;;;15.53;100.00;100552.97;4898715;29;20030;-69
2023/06/08 05:11:00;;;;;;;7.05;5.05;;;;;;;15.55;100.00;100538.25;4915675;29;20028;-69
2023/06/08 05:13:25;;;;;;;6.93;4.93;;;;;;;15.55;100.00;100535.63;4915606;29;20115;-70
2023/06/08 05:15:51;;;;;;;8.35;4.45;;;;;;;15.69;100.00;100557.59;4915545;29;20032;-70
2023/06/08 05:18:16;;;;;;;7.13;4.63;;;;;;;15.82;100.00;100544.81;4915316;29;20388;-70
2023/06/08 05:20:41;;;;;;;7.60;4.72;;;;;;;15.93;100.00;100543.25;4906125;29;20080;-70
2023/06/08 05:23:07;;;;;;;9.10;5.80;;;;;;;16.00;100.00;100552.94;4902803;29;20028;-69
2023/06/08 05:25:36;;;;;;;9.02;5.20;;;;;;;16.09;100.00;100549.59;4910322;29;20096;-70
2023/06/08 05:28:03;;;;;;;12.88;5.80;;;;;;;16.23;100.00;100542.00;4909512;29;20448;-69
2023/06/08 05:30:28;;;;;;;13.13;5.47;;;;;;;16.41;100.00;100550.94;4907991;29;20064;-69
2023/06/08 05:32:54;;;;;;;18.15;6.82;;;;;;;16.55;100.00;100553.72;4925938;29;20184;-69
2023/06/08 05:35:19;;;;;;;10.95;6.13;;;;;;;16.55;100.00;100530.25;4908903;29;20039;-69
2023/06/08 05:37:45;;;;;;;8.32;5.40;;;;;;;16.80;100.00;100552.34;4911141;29;20399;-69
2023/06/08 05:40:11;;;;;;;7.97;5.13;;;;;;;16.85;100.00;100558.47;4909384;29;20421;-69
2023/06/08 05:42:36;;;;;;;8.20;5.32;;;;;;;16.95;100.00;100555.16;4910597;29;20032;-68
2023/06/08 05:45:02;;;;;;;9.43;5.10;;;;;;;17.05;100.00;100563.09;4901892;29;20061;-69
2023/06/08 05:47:27;;;;;;;10.20;5.75;;;;;;;17.09;100.00;100562.28;4911676;29;20035;-68
2023/06/08 05:49:53;;;;;;;7.68;5.25;;;;;;;17.16;100.00;100564.09;4905064;29;20036;-68
2023/06/08 05:52:18;;;;;;;10.02;6.20;;;;;;;17.20;100.00;100568.50;4904172;29;20659;-69
2023/06/08 05:54:43;;;;;;;10.65;6.05;;;;;;;17.24;100.00;100564.19;4912366;29;20472;-69
2023/06/08 05:57:09;;;;;;;9.45;5.75;;;;;;;17.27;100.00;100567.69;4905791;29;20468;-68
2023/06/08 05:59:34;;;;;;;8.90;6.07;;;;;;;17.38;100.00;100567.78;4893802;29;20400;-69
2023/06/08 06:02:00;;;;;;;13.18;6.60;;;;;;;17.39;100.00;100553.91;4904582;29;20060;-68
2023/06/08 06:04:25;;;;;;;9.20;6.97;;;;;;;17.51;100.00;100561.00;4904784;29;20028;-68
2023/06/08 06:06:51;;;;;;;10.45;6.38;;;;;;;17.59;100.00;100566.28;4900319;29;20050;-68
2023/06/08 06:09:17;;;;;;;13.52;6.90;;;;;;;17.58;100.00;100549.75;4905275;29;20661;-68
2023/06/08 06:11:42;;;;;;;11.63;5.40;;;;;;;17.74;100.00;100547.25;4895947;29;20033;-68
2023/06/08 06:14:08;;;;;;;11.45;6.00;;;;;;;17.98;100.00;100551.88;4895848;29;20471;-68
2023/06/08 06:16:33;;;;;;;12.63;6.28;;;;;;;18.13;100.00;100561.56;4878626;29;20033;-69
2023/06/08 06:18:58;;;;;;;10.57;6.57;;;;;;;18.01;100.00;100504.84;4895255;29;20025;-69
2023/06/08 06:21:24;;;;;;;10.05;6.85;;;;;;;18.36;100.00;100540.78;4895298;29;20088;-68
2023/06/08 06:23:50;;;;;;;10.77;7.40;;;;;;;18.42;100.00;100540.81;4904501;29;20451;-68
2023/06/08 06:26:15;;;;;;;13.30;6.72;;;;;;;18.43;100.00;100536.50;4914116;29;20035;-69
2023/06/08 06:28:41;;;;;;;14.63;6.95;;;;;;;18.50;99.49;100540.00;4914087;29;20038;-69
2023/06/08 06:31:06;;;;;;;9.18;6.07;;;;;;;18.35;98.96;100514.66;4913818;29;20060;-69
2023/06/08 06:33:32;;;;;;;10.10;5.88;;;;;;;18.53;99.98;100540.88;4914279;29;20025;-68
2023/06/08 06:35:58;;;;;;;11.63;6.28;;;;;;;18.61;100.00;100543.53;4900379;29;20044;-68
2023/06/08 06:38:24;;;;;;;9.63;5.72;;;;;;;18.86;97.33;100538.44;4895335;29;20032;-69
2023/06/08 06:40:52;;;;;;;10.10;5.68;;;;;;;18.89;98.49;100539.31;4895654;29;20084;-69
2023/06/08 06:43:19;;;;;;;9.52;5.43;;;;;;;19.01;99.59;100533.28;4899225;29;20471;-69
2023/06/08 06:45:50;;;;;;;10.15;5.25;;;;;;;18.95;98.29;100519.31;4901959;29;20049;-69
2023/06/08 06:48:16;;;;;;;11.27;5.43;;;;;;;18.97;99.08;100517.56;4917915;29;20039;-69
2023/06/08 06:50:41;;;;;;;9.50;5.13;;;;;;;19.13;97.55;100537.69;4917866;29;20028;-69
2023/06/08 06:59:50;;;;;;;10.50;5.10;;;;;;;19.72;94.78;100540.38;4917975;29;20063;-67
2023/06/08 07:02:16;;;;;;;6.45;4.72;;;;;;;19.84;92.18;100516.84;4917819;29;20036;-66
2023/06/08 07:04:41;;;;;;;11.30;5.43;;;;;;;20.03;91.03;100532.56;4917684;29;20036;-67
2023/06/08 07:07:07;;;;;;;8.00;6.38;;;;;;;20.24;92.31;100525.50;4917611;29;20028;-68
2023/06/08 07:09:32;;;;;;;10.65;5.85;;;;;;;20.14;92.18;100541.28;4917365;29;20119;-67
2023/06/08 07:11:58;;;;;;;8.15;5.88;;;;;;;20.09;90.31;100540.41;4917398;29;20028;-64
2023/06/08 07:14:24;;;;;;;11.73;7.80;;;;;;;20.23;89.16;100519.41;4917751;29;20028;-66
2023/06/08 07:16:50;;;;;;;7.70;6.85;;;;;;;20.26;88.84;100529.00;4900846;29;20694;-68
2023/06/08 07:19:16;;;;;;;9.20;6.18;;;;;;;20.19;89.20;100534.28;4917421;29;20032;-68
2023/06/08 07:21:42;;;;;;;8.23;6.10;;;;;;;20.28;89.35;100537.75;4917389;29;20123;-69
2023/06/08 07:24:08;;;;;;;13.23;6.55;;;;;;;20.26;89.90;100545.63;4917294;29;20103;-67
2023/06/08 07:26:33;;;;;;;7.82;6.00;;;;;;;20.26;89.53;100539.50;4912198;29;20033;-67
2023/06/08 07:29:00;;;;;;;10.02;5.85;;;;;;;20.31;88.16;100533.38;4905126;29;20118;-65
2023/06/08 07:31:27;;;;;;;12.90;6.43;;;;;;;20.42;89.75;100522.84;4917126;29;20036;-66
2023/06/08 07:33:54;;;;;;;7.10;5.18;;;;;;;20.63;86.02;100536.78;4916996;29;20032;-66
2023/06/08 07:36:20;;;;;;;7.10;5.97;;;;;;;20.75;85.36;100533.25;4905442;29;20068;-66
2023/06/08 07:38:50;;;;;;;9.70;6.13;;;;;;;20.73;84.43;100530.66;4898174;29;20076;-66
2023/06/08 07:41:17;;;;;;;10.38;6.82;;;;;;;20.80;85.31;100511.38;4898477;29;20123;-67
2023/06/08 07:43:42;;;;;;;10.75;5.60;;;;;;;21.06;84.80;100527.88;4898266;29;20029;-68
2023/06/08 07:46:08;;;;;;;9.50;5.50;;;;;;;21.14;82.60;100520.84;4897599;29;20052;-68
2023/06/08 07:48:33;;;;;;;7.93;5.25;;;;;;;21.22;82.73;100518.16;4898247;29;20024;-67
2023/06/08 07:50:59;;;;;;;8.55;5.00;;;;;;;21.38;82.23;100530.31;4897900;29;20052;-68
2023/06/08 07:53:24;;;;;;;8.10;4.47;;;;;;;21.44;80.63;100525.00;4898060;29;20036;-66
2023/06/08 07:55:50;;;;;;;11.15;4.70;;;;;;;21.50;79.47;100519.72;4898097;29;20036;-65
2023/06/08 07:58:15;;;;;;;8.23;4.80;;;;;;;21.60;85.70;100514.44;4905450;29;20039;-67
2023/06/08 08:00:41;;;;;;;13.57;4.40;;;;;;;21.24;81.89;100449.00;4916554;29;20028;-67
2023/06/08 08:03:06;;;;;;;10.38;4.28;;;;;;;21.58;81.05;100514.47;4916965;29;20479;-65
2023/06/08 08:05:32;;;;;;;13.05;5.22;;;;;;;21.61;82.39;100518.81;4916458;29;20051;-68
2023/06/08 08:07:58;;;;;;;8.18;4.78;;;;;;;21.57;80.90;100503.94;4916370;29;20099;-67
2023/06/08 08:10:24;;;;;;;7.47;4.25;;;;;;;21.63;81.58;100511.78;4916868;29;20047;-67
2023/06/08 08:12:50;;;;;;;9.43;4.80;;;;;;;21.69;80.89;100495.09;4916798;29;20032;-64
2023/06/08 08:15:15;;;;;;;7.95;4.95;;;;;;;21.79;81.37;100481.88;4915662;29;20031;-65
2023/06/08 08:17:41;;;;;;;7.30;4.60;;;;;;;21.92;79.87;100485.25;4916305;29;20040;-66
2023/06/08 08:20:07;;;;;;;7.55;4.32;;;;;;;22.08;78.60;100501.75;4916523;29;20034;-67
2023/06/08 08:22:33;;;;;;;7.38;4.45;;;;;;;22.13;77.38;100506.94;4916302;29;20032;-69
2023/06/08 08:24:58;;;;;;;6.05;4.30;;;;;;;22.06;78.39;100487.72;4882866;29;20491;-66
2023/06/08 08:27:23;;;;;;;7.80;4.50;;;;;;;22.12;77.33;100489.44;4915700;29;20043;-65
2023/06/08 08:29:49;;;;;;;8.43;4.82;;;;;;;22.36;76.04;100501.44;4916117;29;20024;-66
2023/06/08 08:32:15;;;;;;;7.18;4.20;;;;;;;22.19;73.78;100450.78;4916266;29;20473;-67
2023/06/08 08:34:40;;;;;;;9.88;4.43;;;;;;;22.31;74.09;100450.66;4882510;29;20494;-67
2023/06/08 08:37:06;;;;;;;8.40;4.38;;;;;;;22.72;74.17;100501.91;4916166;29;20032;-68
2023/06/08 08:39:32;;;;;;;7.47;3.35;;;;;;;22.72;73.82;100498.41;4915880;29;20032;-69
2023/06/08 08:42:02;;;;;;;7.20;3.70;;;;;;;22.67;73.70;100493.22;4916397;29;20036;-68
2023/06/08 08:44:30;;;;;;;5.95;3.45;;;;;;;22.80;72.00;100495.69;4915620;29;20036;-69
2023/06/08 08:47:02;;;;;;;6.22;3.67;;;;;;;22.86;71.96;100483.28;4916249;29;20118;-68
2023/06/08 08:49:32;;;;;;;8.50;3.78;;;;;;;22.87;69.20;100492.94;4912263;29;20039;-69
2023/06/08 08:52:01;;;;;;;6.20;3.90;;;;;;;22.96;68.94;100491.09;4916090;29;20028;-68
2023/06/08 08:54:34;;;;;;;8.30;4.07;;;;;;;23.09;70.08;100474.19;4915677;29;20463;-68
2023/06/08 08:57:00;;;;;;;7.03;3.63;;;;;;;23.26;69.70;100473.97;4915720;29;20035;-68
2023/06/08 08:59:29;;;;;;;9.93;3.83;;;;;;;23.33;69.59;100478.28;4915871;29;20135;-68
2023/06/08 09:01:55;;;;;;;6.90;3.87;;;;;;;23.35;67.11;100468.59;4915890;29;20024;-68
2023/06/08 09:04:23;;;;;;;6.50;3.75;;;;;;;23.56;67.05;100483.19;4904690;29;20291;-67
2023/06/08 09:06:49;;;;;;;6.53;3.78;;;;;;;23.42;66.71;100433.31;4906870;29;20550;-67
2023/06/08 09:09:16;;;;;;;10.98;4.43;;;;;;;23.85;65.14;100473.88;4910518;29;20082;-68
2023/06/08 09:11:58;;;;;;;9.45;3.90;;;;;;;23.63;64.01;100409.25;4909358;29;20084;-68
2023/06/08 09:14:24;;;;;;;8.15;3.40;;;;;;;24.03;66.15;100470.06;4896490;29;20020;-69
2023/06/08 09:16:50;;;;;;;6.03;3.45;;;;;;;24.06;64.89;100477.03;4905841;29;20025;-69
2023/06/08 09:19:16;;;;;;;5.10;3.15;;;;;;;23.83;63.65;100438.75;4905967;29;20091;-66
2023/06/08 09:21:41;;;;;;;8.30;3.47;;;;;;;23.94;63.87;100454.41;4904616;29;20480;-69
2023/06/08 09:24:11;;;;;;;5.93;3.30;;;;;;;24.00;64.23;100459.59;4905869;29;20787;-68
2023/06/08 09:26:38;;;;;;;6.38;3.30;;;;;;;24.05;65.58;100427.81;4907202;29;20066;-69
2023/06/08 09:29:05;;;;;;;8.70;3.55;;;;;;;24.36;63.54;100448.31;4904235;29;20032;-70
2023/06/08 09:31:31;;;;;;;6.78;3.47;;;;;;;24.30;59.80;100403.59;4905555;29;20395;-66
2023/06/08 09:34:07;;;;;;;7.80;3.75;;;;;;;24.65;59.86;100446.84;4905886;29;20028;-67
2023/06/08 09:36:37;;;;;;;5.20;3.30;;;;;;;24.78;61.29;100444.84;4906144;29;20021;-67
2023/06/08 09:39:06;;;;;;;;;;;;;;;24.75;60.62;100444.88;4906228;29;20036;-68
2023/06/08 09:41:33;;;;;;;8.00;3.70;;;;;;;24.94;60.17;100437.44;4862119;29;20306;-66
2023/06/08 09:44:00;;;;;;;7.88;3.33;;;;;;;25.00;59.95;100424.09;4906747;29;20044;-68
2023/06/08 09:46:41;;;;;;;6.20;3.40;;;;;;;25.01;61.14;100426.69;4905847;29;20052;-68
2023/06/08 09:49:07;;;;;;;5.68;3.00;;;;;;;25.19;61.36;100425.34;4893915;29;20407;-66
2023/06/08 09:51:37;;;;;;;7.32;3.40;;;;;;;25.21;59.57;100404.22;4897364;29;20046;-68
2023/06/08 09:54:04;;;;;;;7.90;3.30;;;;;;;25.32;56.38;100410.09;4906365;29;20399;-67
2023/06/08 09:56:29;;;;;;;6.75;2.92;;;;;;;25.25;53.16;100403.22;4897405;29;20047;-66
2023/06/08 09:58:57;;;;;;;7.05;3.53;;;;;;;25.50;55.47;100405.28;4896115;29;20044;-68
2023/06/08 10:01:40;;;;;;;7.57;3.08;;;;;;;25.32;52.75;100348.44;4903761;29;20100;-68
2023/06/08 10:04:26;;;;;;;8.38;3.08;;;;;;;25.81;54.78;100397.38;4905788;29;20020;-67
2023/06/08 10:07:01;;;;;;;4.97;3.38;;;;;;;25.88;50.47;100390.13;4905263;29;20032;-67
2023/06/08 10:09:29;;;;;;;10.57;3.38;;;;;;;26.00;52.41;100391.56;4912818;29;20499;-68
2023/06/08 10:11:56;;;;;;;8.18;3.03;;;;;;;26.16;50.96;100389.38;4913523;29;20032;-68
2023/06/08 10:14:25;;;;;;;3.83;2.53;;;;;;;26.38;47.96;100386.09;4911949;29;20558;-68
2023/06/08 10:16:52;;;;;;;10.98;2.97;;;;;;;26.06;49.93;100316.50;4904213;29;20044;-68
2023/06/08 10:19:18;;;;;;;6.90;2.80;;;;;;;26.66;51.56;100375.53;4895512;29;20036;-67
2023/06/08 10:21:45;;;;;;;11.10;3.30;;;;;;;26.78;50.45;100371.63;4907569;29;20028;-67
2023/06/08 10:24:11;;;;;;;4.38;2.72;;;;;;;26.97;47.51;100379.88;4906134;29;20021;-66
2023/06/08 10:26:37;;;;;;;6.47;3.17;;;;;;;27.02;44.80;100370.00;4907221;29;20071;-67
2023/06/08 10:29:10;;;;;;;5.55;2.97;;;;;;;27.06;47.78;100358.38;4904057;29;20024;-65
2023/06/08 10:31:42;;;;;;;6.88;3.33;;;;;;;27.14;48.31;100344.84;4903116;29;20040;-68
2023/06/08 10:34:11;;;;;;;8.85;3.10;;;;;;;27.33;49.01;100346.88;4913486;29;20020;-68
2023/06/08 10:36:42;;;;;;;4.72;2.60;;;;;;;27.47;46.83;100352.59;4913226;29;20621;-69
2023/06/08 10:39:13;;;;;;;5.57;3.08;;;;;;;27.63;48.33;100349.38;4913308;29;20040;-68
2023/06/08 10:41:40;;;;;;;6.13;2.83;;;;;;;27.46;46.81;100297.84;4913294;29;20510;-69
2023/06/08 10:44:22;;;;;;;7.10;3.28;;;;;;;27.76;45.35;100321.50;4913380;29;20032;-70
2023/06/08 10:46:56;;;;;;;5.68;3.10;;;;;;;27.46;46.24;100291.69;4912105;29;20587;-67
2023/06/08 10:49:21;;;;;;;10.35;3.20;;;;;;;27.72;46.19;100331.34;4911035;29;20119;-68
2023/06/08 10:51:53;;;;;;;7.40;3.35;;;;;;;27.85;47.26;100337.09;4911740;29;20076;-68
2023/06/08 10:54:23;;;;;;;7.93;2.88;;;;;;;28.12;45.64;100334.34;4910129;29;20491;-70
2023/06/08 10:56:53;;;;;;;6.20;3.33;;;;;;;28.24;46.13;100322.41;4896708;29;20031;-70
2023/06/08 10:59:37;;;;;;;5.50;2.80;;;;;;;28.30;46.93;100323.94;4913623;29;20047;-70
2023/06/08 11:02:06;;;;;;;8.02;3.20;;;;;;;28.39;46.55;100315.63;4913527;29;20406;-70
2023/06/08 11:04:34;;;;;;;4.53;2.88;;;;;;;28.47;45.09;100313.50;4913480;29;20052;-71
2023/06/08 11:07:03;;;;;;;4.18;2.80;;;;;;;28.39;44.15;100320.94;4913721;29;20034;-70
2023/06/08 11:09:30;;;;;;;5.32;3.28;;;;;;;28.31;42.27;100269.91;4913678;29;20364;-70
2023/06/08 11:11:56;;;;;;;6.97;3.30;;;;;;;28.62;45.65;100297.88;4913654;29;20039;-70
2023/06/08 11:14:21;;;;;;;7.57;2.97;;;;;;;28.64;41.97;100298.69;4912735;29;20028;-69
2023/06/08 11:16:51;;;;;;;8.27;3.33;;;;;;;28.59;41.99;100296.22;4906567;29;20033;-70
2023/06/08 11:19:18;;;;;;;8.63;3.25;;;;;;;28.28;45.89;100235.53;4909988;29;20059;-69
2023/06/08 11:21:45;;;;;;;8.68;3.47;;;;;;;28.88;46.25;100289.69;4912957;29;20028;-69
2023/06/08 11:24:10;;;;;;;7.97;3.22;;;;;;;29.09;44.41;100288.88;4913389;29;20032;-69
2023/06/08 11:26:36;;;;;;;7.75;3.38;;;;;;;28.98;47.75;100286.66;4913301;29;20479;-69
2023/06/08 11:29:01;;;;;;;6.00;2.63;;;;;;;29.00;45.92;100275.03;4915848;29;20028;-69